sensor_id;sensor_type;location;lat;lon;timestamp;P1;durP1;ratioP1;P2;durP2;ratioP2
76786;SDS011;65739;51.482;5.702;2024-01-11T00:00:19;31.02;;;13.25;;
76786;SDS011;65739;51.482;5.702;2024-01-11T00:02:44;29.55;;;12.32;;
76786;SDS011;65739;51.482;5.702;2024-01-11T00:05:12;26.70;;;12.80;;
76786;SDS011;65739;51.482;5.702;2024-01-11T00:07:38;27.85;;;12.70;;
76786;SDS011;65739;51.482;5.702;2024-01-11T00:10:04;28.85;;;12.38;;
76786;SDS011;65739;51.482;5.702;2024-01-11T00:12:30;32.17;;;12.77;;
76786;SDS011;65739;51.482;5.702;2024-01-11T00:14:56;27.45;;;12.80;;
76786;SDS011;65739;51.482;5.702;2024-01-11T00:20:46;27.40;;;12.43;;
76786;SDS011;65739;51.482;5.702;2024-01-11T00:23:11;33.92;;;13.13;;
76786;SDS011;65739;51.482;5.702;2024-01-11T00:25:37;28.83;;;12.43;;
76786;SDS011;65739;51.482;5.702;2024-01-11T00:28:03;27.00;;;12.48;;
76786;SDS011;65739;51.482;5.702;2024-01-11T00:30:29;25.52;;;12.57;;
76786;SDS011;65739;51.482;5.702;2024-01-11T00:32:54;30.05;;;12.43;;
76786;SDS011;65739;51.482;5.702;2024-01-11T00:35:20;27.67;;;12.60;;
76786;SDS011;65739;51.482;5.702;2024-01-11T00:37:46;33.10;;;13.50;;
76786;SDS011;65739;51.482;5.702;2024-01-11T00:40:11;29.67;;;12.85;;
76786;SDS011;65739;51.482;5.702;2024-01-11T00:42:37;27.17;;;12.15;;
76786;SDS011;65739;51.482;5.702;2024-01-11T00:45:03;25.17;;;12.45;;
76786;SDS011;65739;51.482;5.702;2024-01-11T00:47:29;31.02;;;12.10;;
76786;SDS011;65739;51.482;5.702;2024-01-11T00:49:54;30.30;;;13.27;;
76786;SDS011;65739;51.482;5.702;2024-01-11T00:52:20;29.55;;;13.90;;
76786;SDS011;65739;51.482;5.702;2024-01-11T00:54:46;38.63;;;14.15;;
76786;SDS011;65739;51.482;5.702;2024-01-11T00:57:12;31.50;;;12.45;;
76786;SDS011;65739;51.482;5.702;2024-01-11T00:59:37;27.00;;;12.20;;
76786;SDS011;65739;51.482;5.702;2024-01-11T01:02:05;33.22;;;13.10;;
76786;SDS011;65739;51.482;5.702;2024-01-11T01:04:30;32.42;;;13.30;;
76786;SDS011;65739;51.482;5.702;2024-01-11T01:06:56;29.52;;;13.30;;
76786;SDS011;65739;51.482;5.702;2024-01-11T01:09:22;31.80;;;13.27;;
76786;SDS011;65739;51.482;5.702;2024-01-11T01:11:48;34.33;;;14.00;;
76786;SDS011;65739;51.482;5.702;2024-01-11T01:14:14;35.00;;;13.57;;
76786;SDS011;65739;51.482;5.702;2024-01-11T01:16:39;32.13;;;13.57;;
76786;SDS011;65739;51.482;5.702;2024-01-11T01:19:05;29.63;;;12.52;;
76786;SDS011;65739;51.482;5.702;2024-01-11T01:21:30;34.85;;;13.20;;
76786;SDS011;65739;51.482;5.702;2024-01-11T01:23:56;27.65;;;12.55;;
76786;SDS011;65739;51.482;5.702;2024-01-11T01:26:22;32.42;;;13.07;;
76786;SDS011;65739;51.482;5.702;2024-01-11T01:28:47;30.92;;;12.95;;
76786;SDS011;65739;51.482;5.702;2024-01-11T01:31:13;36.20;;;14.13;;
76786;SDS011;65739;51.482;5.702;2024-01-11T01:33:42;29.65;;;13.45;;
76786;SDS011;65739;51.482;5.702;2024-01-11T01:36:09;32.47;;;13.60;;
76786;SDS011;65739;51.482;5.702;2024-01-11T01:38:35;35.70;;;14.00;;
76786;SDS011;65739;51.482;5.702;2024-01-11T01:41:01;34.40;;;13.50;;
76786;SDS011;65739;51.482;5.702;2024-01-11T01:43:26;30.77;;;13.35;;
76786;SDS011;65739;51.482;5.702;2024-01-11T01:45:52;32.30;;;13.40;;
76786;SDS011;65739;51.482;5.702;2024-01-11T01:48:18;30.63;;;13.05;;
76786;SDS011;65739;51.482;5.702;2024-01-11T01:50:45;32.47;;;13.05;;
76786;SDS011;65739;51.482;5.702;2024-01-11T01:53:16;27.40;;;12.02;;
76786;SDS011;65739;51.482;5.702;2024-01-11T01:55:46;31.92;;;12.93;;
76786;SDS011;65739;51.482;5.702;2024-01-11T01:58:13;31.50;;;13.68;;
76786;SDS011;65739;51.482;5.702;2024-01-11T02:00:40;32.90;;;12.85;;
76786;SDS011;65739;51.482;5.702;2024-01-11T02:03:07;32.80;;;14.18;;
76786;SDS011;65739;51.482;5.702;2024-01-11T02:05:33;41.80;;;12.63;;
76786;SDS011;65739;51.482;5.702;2024-01-11T02:08:00;32.38;;;13.40;;
76786;SDS011;65739;51.482;5.702;2024-01-11T02:10:28;30.25;;;13.40;;
76786;SDS011;65739;51.482;5.702;2024-01-11T02:12:57;35.28;;;14.52;;
76786;SDS011;65739;51.482;5.702;2024-01-11T02:15:24;30.48;;;13.00;;
76786;SDS011;65739;51.482;5.702;2024-01-11T02:17:49;31.30;;;13.40;;
76786;SDS011;65739;51.482;5.702;2024-01-11T02:20:15;31.80;;;13.95;;
76786;SDS011;65739;51.482;5.702;2024-01-11T02:22:41;28.67;;;12.00;;
76786;SDS011;65739;51.482;5.702;2024-01-11T02:25:11;28.48;;;12.80;;
76786;SDS011;65739;51.482;5.702;2024-01-11T02:27:47;32.47;;;13.55;;
76786;SDS011;65739;51.482;5.702;2024-01-11T02:30:13;29.65;;;13.20;;
76786;SDS011;65739;51.482;5.702;2024-01-11T02:32:39;32.40;;;13.68;;
76786;SDS011;65739;51.482;5.702;2024-01-11T02:35:05;36.38;;;14.05;;
76786;SDS011;65739;51.482;5.702;2024-01-11T02:37:31;35.33;;;13.88;;
76786;SDS011;65739;51.482;5.702;2024-01-11T02:39:57;30.27;;;13.13;;
76786;SDS011;65739;51.482;5.702;2024-01-11T02:42:23;28.60;;;13.07;;
76786;SDS011;65739;51.482;5.702;2024-01-11T02:44:49;33.15;;;14.10;;
76786;SDS011;65739;51.482;5.702;2024-01-11T02:47:14;32.13;;;14.32;;
76786;SDS011;65739;51.482;5.702;2024-01-11T02:49:40;32.15;;;14.18;;
76786;SDS011;65739;51.482;5.702;2024-01-11T02:52:06;31.50;;;13.80;;
76786;SDS011;65739;51.482;5.702;2024-01-11T02:54:31;33.00;;;13.27;;
76786;SDS011;65739;51.482;5.702;2024-01-11T02:56:57;33.63;;;13.80;;
76786;SDS011;65739;51.482;5.702;2024-01-11T02:59:22;38.05;;;14.63;;
76786;SDS011;65739;51.482;5.702;2024-01-11T03:01:49;34.00;;;14.30;;
76786;SDS011;65739;51.482;5.702;2024-01-11T03:04:14;31.83;;;13.95;;
76786;SDS011;65739;51.482;5.702;2024-01-11T03:06:40;31.13;;;13.75;;
76786;SDS011;65739;51.482;5.702;2024-01-11T03:09:06;33.53;;;13.93;;
76786;SDS011;65739;51.482;5.702;2024-01-11T03:11:31;32.97;;;13.45;;
76786;SDS011;65739;51.482;5.702;2024-01-11T03:13:57;28.85;;;14.00;;
76786;SDS011;65739;51.482;5.702;2024-01-11T03:16:23;34.63;;;14.93;;
76786;SDS011;65739;51.482;5.702;2024-01-11T03:18:48;34.78;;;13.32;;
76786;SDS011;65739;51.482;5.702;2024-01-11T03:21:14;36.80;;;13.60;;
76786;SDS011;65739;51.482;5.702;2024-01-11T03:23:40;38.00;;;14.27;;
76786;SDS011;65739;51.482;5.702;2024-01-11T03:26:13;30.58;;;13.57;;
76786;SDS011;65739;51.482;5.702;2024-01-11T03:28:42;37.33;;;14.10;;
76786;SDS011;65739;51.482;5.702;2024-01-11T03:31:08;33.22;;;14.00;;
76786;SDS011;65739;51.482;5.702;2024-01-11T03:33:34;34.53;;;13.55;;
76786;SDS011;65739;51.482;5.702;2024-01-11T03:36:06;32.25;;;12.93;;
76786;SDS011;65739;51.482;5.702;2024-01-11T03:38:32;33.40;;;13.35;;
76786;SDS011;65739;51.482;5.702;2024-01-11T03:40:58;38.75;;;14.18;;
76786;SDS011;65739;51.482;5.702;2024-01-11T03:43:23;34.05;;;13.65;;
76786;SDS011;65739;51.482;5.702;2024-01-11T03:45:49;36.47;;;14.05;;
76786;SDS011;65739;51.482;5.702;2024-01-11T03:48:15;36.42;;;13.38;;
76786;SDS011;65739;51.482;5.702;2024-01-11T03:50:43;33.58;;;13.80;;
76786;SDS011;65739;51.482;5.702;2024-01-11T03:53:08;30.67;;;13.80;;
76786;SDS011;65739;51.482;5.702;2024-01-11T03:55:34;35.90;;;13.85;;
76786;SDS011;65739;51.482;5.702;2024-01-11T03:57:59;32.92;;;14.05;;
76786;SDS011;65739;51.482;5.702;2024-01-11T04:00:25;36.55;;;13.88;;
76786;SDS011;65739;51.482;5.702;2024-01-11T04:02:51;34.40;;;14.18;;
76786;SDS011;65739;51.482;5.702;2024-01-11T04:05:16;30.52;;;13.00;;
76786;SDS011;65739;51.482;5.702;2024-01-11T04:07:42;35.60;;;13.57;;
76786;SDS011;65739;51.482;5.702;2024-01-11T04:10:08;34.15;;;13.90;;
76786;SDS011;65739;51.482;5.702;2024-01-11T04:12:36;34.58;;;14.10;;
76786;SDS011;65739;51.482;5.702;2024-01-11T04:15:02;30.27;;;13.50;;
76786;SDS011;65739;51.482;5.702;2024-01-11T04:17:28;29.77;;;13.18;;
76786;SDS011;65739;51.482;5.702;2024-01-11T04:19:54;37.50;;;14.35;;
76786;SDS011;65739;51.482;5.702;2024-01-11T04:22:20;30.50;;;13.32;;
76786;SDS011;65739;51.482;5.702;2024-01-11T04:24:45;33.85;;;14.43;;
76786;SDS011;65739;51.482;5.702;2024-01-11T04:27:11;29.77;;;13.88;;
76786;SDS011;65739;51.482;5.702;2024-01-11T04:29:36;28.50;;;12.48;;
76786;SDS011;65739;51.482;5.702;2024-01-11T04:32:02;33.92;;;14.45;;
76786;SDS011;65739;51.482;5.702;2024-01-11T04:34:28;39.25;;;13.60;;
76786;SDS011;65739;51.482;5.702;2024-01-11T04:36:54;39.22;;;15.50;;
76786;SDS011;65739;51.482;5.702;2024-01-11T04:39:20;32.95;;;14.52;;
76786;SDS011;65739;51.482;5.702;2024-01-11T04:41:45;28.38;;;13.75;;
76786;SDS011;65739;51.482;5.702;2024-01-11T04:44:11;34.17;;;13.55;;
76786;SDS011;65739;51.482;5.702;2024-01-11T04:46:36;31.83;;;13.40;;
76786;SDS011;65739;51.482;5.702;2024-01-11T04:49:02;29.73;;;13.18;;
76786;SDS011;65739;51.482;5.702;2024-01-11T04:51:28;29.50;;;13.27;;
76786;SDS011;65739;51.482;5.702;2024-01-11T04:53:53;32.03;;;12.73;;
76786;SDS011;65739;51.482;5.702;2024-01-11T04:56:19;31.80;;;13.88;;
76786;SDS011;65739;51.482;5.702;2024-01-11T04:58:45;31.20;;;13.32;;
76786;SDS011;65739;51.482;5.702;2024-01-11T05:01:13;31.75;;;12.68;;
76786;SDS011;65739;51.482;5.702;2024-01-11T05:03:40;28.73;;;12.55;;
76786;SDS011;65739;51.482;5.702;2024-01-11T05:06:07;31.33;;;13.35;;
76786;SDS011;65739;51.482;5.702;2024-01-11T05:08:32;30.13;;;13.73;;
76786;SDS011;65739;51.482;5.702;2024-01-11T05:10:58;35.85;;;14.43;;
76786;SDS011;65739;51.482;5.702;2024-01-11T05:13:24;34.03;;;14.18;;
76786;SDS011;65739;51.482;5.702;2024-01-11T05:15:49;31.90;;;13.07;;
76786;SDS011;65739;51.482;5.702;2024-01-11T05:18:15;33.38;;;13.80;;
76786;SDS011;65739;51.482;5.702;2024-01-11T05:20:41;29.73;;;13.40;;
76786;SDS011;65739;51.482;5.702;2024-01-11T05:23:06;38.25;;;13.57;;
76786;SDS011;65739;51.482;5.702;2024-01-11T05:25:32;32.90;;;13.88;;
76786;SDS011;65739;51.482;5.702;2024-01-11T05:28:00;35.30;;;13.90;;
76786;SDS011;65739;51.482;5.702;2024-01-11T05:30:27;36.92;;;13.00;;
76786;SDS011;65739;51.482;5.702;2024-01-11T05:32:53;33.45;;;13.57;;
76786;SDS011;65739;51.482;5.702;2024-01-11T05:35:19;32.05;;;13.65;;
76786;SDS011;65739;51.482;5.702;2024-01-11T05:37:44;37.80;;;12.77;;
76786;SDS011;65739;51.482;5.702;2024-01-11T05:40:10;33.80;;;13.88;;
76786;SDS011;65739;51.482;5.702;2024-01-11T05:42:36;30.33;;;11.93;;
76786;SDS011;65739;51.482;5.702;2024-01-11T05:45:03;27.67;;;12.75;;
76786;SDS011;65739;51.482;5.702;2024-01-11T05:47:29;30.08;;;13.02;;
76786;SDS011;65739;51.482;5.702;2024-01-11T05:49:55;26.48;;;11.23;;
76786;SDS011;65739;51.482;5.702;2024-01-11T05:52:21;31.48;;;12.90;;
76786;SDS011;65739;51.482;5.702;2024-01-11T05:54:46;32.15;;;12.63;;
76786;SDS011;65739;51.482;5.702;2024-01-11T05:57:12;29.45;;;12.27;;
76786;SDS011;65739;51.482;5.702;2024-01-11T05:59:42;36.45;;;13.05;;
76786;SDS011;65739;51.482;5.702;2024-01-11T06:02:09;28.63;;;11.63;;
76786;SDS011;65739;51.482;5.702;2024-01-11T06:04:35;24.27;;;10.80;;
76786;SDS011;65739;51.482;5.702;2024-01-11T06:07:01;32.75;;;12.00;;
76786;SDS011;65739;51.482;5.702;2024-01-11T06:09:26;26.98;;;11.48;;
76786;SDS011;65739;51.482;5.702;2024-01-11T06:11:52;28.30;;;12.68;;
76786;SDS011;65739;51.482;5.702;2024-01-11T06:14:18;30.55;;;12.27;;
76786;SDS011;65739;51.482;5.702;2024-01-11T06:16:43;29.35;;;12.23;;
76786;SDS011;65739;51.482;5.702;2024-01-11T06:19:12;29.45;;;12.13;;
76786;SDS011;65739;51.482;5.702;2024-01-11T06:21:37;28.58;;;12.38;;
76786;SDS011;65739;51.482;5.702;2024-01-11T06:24:03;23.13;;;11.10;;
76786;SDS011;65739;51.482;5.702;2024-01-11T06:26:29;31.10;;;12.00;;
76786;SDS011;65739;51.482;5.702;2024-01-11T06:28:55;33.17;;;11.73;;
76786;SDS011;65739;51.482;5.702;2024-01-11T06:31:20;29.42;;;11.73;;
76786;SDS011;65739;51.482;5.702;2024-01-11T06:33:46;26.63;;;11.80;;
76786;SDS011;65739;51.482;5.702;2024-01-11T06:36:12;27.85;;;12.75;;
76786;SDS011;65739;51.482;5.702;2024-01-11T06:38:37;30.20;;;11.48;;
76786;SDS011;65739;51.482;5.702;2024-01-11T06:41:03;27.92;;;11.85;;
76786;SDS011;65739;51.482;5.702;2024-01-11T06:43:29;26.45;;;11.30;;
76786;SDS011;65739;51.482;5.702;2024-01-11T06:45:54;27.92;;;11.25;;
76786;SDS011;65739;51.482;5.702;2024-01-11T06:48:20;27.70;;;11.95;;
76786;SDS011;65739;51.482;5.702;2024-01-11T06:50:45;26.58;;;10.80;;
76786;SDS011;65739;51.482;5.702;2024-01-11T06:53:11;28.08;;;12.15;;
76786;SDS011;65739;51.482;5.702;2024-01-11T06:55:37;21.20;;;10.50;;
76786;SDS011;65739;51.482;5.702;2024-01-11T06:58:02;28.05;;;11.13;;
76786;SDS011;65739;51.482;5.702;2024-01-11T07:00:28;24.60;;;11.25;;
76786;SDS011;65739;51.482;5.702;2024-01-11T07:02:54;27.77;;;11.35;;
76786;SDS011;65739;51.482;5.702;2024-01-11T07:05:19;25.20;;;10.93;;
76786;SDS011;65739;51.482;5.702;2024-01-11T07:07:45;23.40;;;10.50;;
76786;SDS011;65739;51.482;5.702;2024-01-11T07:10:11;35.40;;;15.63;;
76786;SDS011;65739;51.482;5.702;2024-01-11T07:12:37;26.90;;;13.23;;
76786;SDS011;65739;51.482;5.702;2024-01-11T07:15:04;34.30;;;14.18;;
76786;SDS011;65739;51.482;5.702;2024-01-11T07:17:30;31.70;;;11.27;;
76786;SDS011;65739;51.482;5.702;2024-01-11T07:19:55;27.77;;;11.98;;
76786;SDS011;65739;51.482;5.702;2024-01-11T07:22:21;34.72;;;14.05;;
76786;SDS011;65739;51.482;5.702;2024-01-11T07:24:46;25.75;;;12.00;;
76786;SDS011;65739;51.482;5.702;2024-01-11T07:27:33;31.75;;;13.85;;
76786;SDS011;65739;51.482;5.702;2024-01-11T07:30:01;31.42;;;12.90;;
76786;SDS011;65739;51.482;5.702;2024-01-11T07:32:27;24.05;;;11.43;;
76786;SDS011;65739;51.482;5.702;2024-01-11T07:34:53;28.25;;;12.20;;
76786;SDS011;65739;51.482;5.702;2024-01-11T07:37:18;31.10;;;13.48;;
76786;SDS011;65739;51.482;5.702;2024-01-11T07:39:45;43.08;;;15.73;;
76786;SDS011;65739;51.482;5.702;2024-01-11T07:42:10;59.88;;;21.20;;
76786;SDS011;65739;51.482;5.702;2024-01-11T07:44:36;61.67;;;21.83;;
76786;SDS011;65739;51.482;5.702;2024-01-11T07:47:02;50.25;;;17.95;;
76786;SDS011;65739;51.482;5.702;2024-01-11T07:49:27;39.92;;;16.00;;
76786;SDS011;65739;51.482;5.702;2024-01-11T07:51:56;34.15;;;15.43;;
76786;SDS011;65739;51.482;5.702;2024-01-11T07:54:28;35.50;;;13.80;;
76786;SDS011;65739;51.482;5.702;2024-01-11T07:56:53;32.05;;;13.05;;
76786;SDS011;65739;51.482;5.702;2024-01-11T07:59:19;36.88;;;14.05;;
76786;SDS011;65739;51.482;5.702;2024-01-11T08:01:44;33.33;;;12.60;;
76786;SDS011;65739;51.482;5.702;2024-01-11T08:04:10;33.10;;;12.82;;
76786;SDS011;65739;51.482;5.702;2024-01-11T08:06:36;29.05;;;12.50;;
76786;SDS011;65739;51.482;5.702;2024-01-11T08:09:01;34.42;;;13.65;;
76786;SDS011;65739;51.482;5.702;2024-01-11T08:11:29;25.65;;;12.00;;
76786;SDS011;65739;51.482;5.702;2024-01-11T08:13:54;26.77;;;12.20;;
76786;SDS011;65739;51.482;5.702;2024-01-11T08:16:20;30.58;;;12.55;;
76786;SDS011;65739;51.482;5.702;2024-01-11T08:18:46;29.25;;;13.15;;
76786;SDS011;65739;51.482;5.702;2024-01-11T08:21:13;26.35;;;11.35;;
76786;SDS011;65739;51.482;5.702;2024-01-11T08:23:42;29.92;;;12.70;;
76786;SDS011;65739;51.482;5.702;2024-01-11T08:26:13;33.63;;;14.07;;
76786;SDS011;65739;51.482;5.702;2024-01-11T08:28:40;30.90;;;13.27;;
76786;SDS011;65739;51.482;5.702;2024-01-11T08:31:06;33.67;;;13.25;;
76786;SDS011;65739;51.482;5.702;2024-01-11T08:33:32;28.15;;;13.05;;
76786;SDS011;65739;51.482;5.702;2024-01-11T08:35:58;30.77;;;12.95;;
76786;SDS011;65739;51.482;5.702;2024-01-11T08:38:23;29.77;;;13.15;;
76786;SDS011;65739;51.482;5.702;2024-01-11T08:40:49;28.33;;;13.55;;
76786;SDS011;65739;51.482;5.702;2024-01-11T08:43:15;28.45;;;13.95;;
76786;SDS011;65739;51.482;5.702;2024-01-11T08:45:41;26.35;;;12.88;;
76786;SDS011;65739;51.482;5.702;2024-01-11T08:48:08;31.08;;;12.68;;
76786;SDS011;65739;51.482;5.702;2024-01-11T08:50:42;27.73;;;13.15;;
76786;SDS011;65739;51.482;5.702;2024-01-11T08:53:51;29.63;;;12.15;;
76786;SDS011;65739;51.482;5.702;2024-01-11T08:56:20;29.55;;;13.23;;
76786;SDS011;65739;51.482;5.702;2024-01-11T08:58:46;28.88;;;12.23;;
76786;SDS011;65739;51.482;5.702;2024-01-11T09:01:13;29.75;;;12.32;;
76786;SDS011;65739;51.482;5.702;2024-01-11T09:03:39;28.25;;;13.07;;
76786;SDS011;65739;51.482;5.702;2024-01-11T09:06:05;29.63;;;12.30;;
76786;SDS011;65739;51.482;5.702;2024-01-11T09:08:31;27.20;;;12.65;;
76786;SDS011;65739;51.482;5.702;2024-01-11T09:10:56;27.48;;;12.93;;
76786;SDS011;65739;51.482;5.702;2024-01-11T09:13:25;29.35;;;12.98;;
76786;SDS011;65739;51.482;5.702;2024-01-11T09:15:52;28.98;;;13.80;;
76786;SDS011;65739;51.482;5.702;2024-01-11T09:18:18;33.42;;;13.90;;
76786;SDS011;65739;51.482;5.702;2024-01-11T09:20:44;33.15;;;15.10;;
76786;SDS011;65739;51.482;5.702;2024-01-11T09:23:11;26.83;;;12.75;;
76786;SDS011;65739;51.482;5.702;2024-01-11T09:25:36;30.65;;;13.38;;
76786;SDS011;65739;51.482;5.702;2024-01-11T09:28:02;32.30;;;13.80;;
76786;SDS011;65739;51.482;5.702;2024-01-11T09:30:28;32.10;;;13.30;;
76786;SDS011;65739;51.482;5.702;2024-01-11T09:32:54;32.65;;;13.75;;
76786;SDS011;65739;51.482;5.702;2024-01-11T09:35:21;33.95;;;13.93;;
76786;SDS011;65739;51.482;5.702;2024-01-11T09:37:48;34.40;;;13.73;;
76786;SDS011;65739;51.482;5.702;2024-01-11T09:40:14;26.67;;;12.80;;
76786;SDS011;65739;51.482;5.702;2024-01-11T09:42:41;25.55;;;12.30;;
76786;SDS011;65739;51.482;5.702;2024-01-11T09:45:07;25.63;;;12.55;;
76786;SDS011;65739;51.482;5.702;2024-01-11T09:47:41;28.05;;;13.48;;
76786;SDS011;65739;51.482;5.702;2024-01-11T09:50:07;27.08;;;12.25;;
76786;SDS011;65739;51.482;5.702;2024-01-11T09:52:33;24.20;;;12.18;;
76786;SDS011;65739;51.482;5.702;2024-01-11T09:55:00;25.98;;;12.65;;
76786;SDS011;65739;51.482;5.702;2024-01-11T09:57:32;27.30;;;12.82;;
76786;SDS011;65739;51.482;5.702;2024-01-11T09:59:59;25.45;;;12.15;;
76786;SDS011;65739;51.482;5.702;2024-01-11T10:02:32;29.30;;;12.50;;
76786;SDS011;65739;51.482;5.702;2024-01-11T10:04:58;24.65;;;12.52;;
76786;SDS011;65739;51.482;5.702;2024-01-11T10:07:27;28.75;;;13.45;;
76786;SDS011;65739;51.482;5.702;2024-01-11T10:09:56;26.45;;;12.00;;
76786;SDS011;65739;51.482;5.702;2024-01-11T10:12:23;28.33;;;12.02;;
76786;SDS011;65739;51.482;5.702;2024-01-11T10:14:50;24.90;;;12.43;;
76786;SDS011;65739;51.482;5.702;2024-01-11T10:17:17;28.20;;;12.50;;
76786;SDS011;65739;51.482;5.702;2024-01-11T10:19:43;30.17;;;12.70;;
76786;SDS011;65739;51.482;5.702;2024-01-11T10:22:08;23.00;;;11.75;;
76786;SDS011;65739;51.482;5.702;2024-01-11T10:24:37;27.08;;;13.02;;
76786;SDS011;65739;51.482;5.702;2024-01-11T10:27:04;26.38;;;12.50;;
76786;SDS011;65739;51.482;5.702;2024-01-11T10:29:39;27.33;;;11.80;;
76786;SDS011;65739;51.482;5.702;2024-01-11T10:32:05;26.63;;;12.23;;
76786;SDS011;65739;51.482;5.702;2024-01-11T10:34:32;27.85;;;12.60;;
76786;SDS011;65739;51.482;5.702;2024-01-11T11:28:28;23.85;;;11.60;;
76786;SDS011;65739;51.482;5.702;2024-01-11T11:35:46;22.52;;;11.52;;
76786;SDS011;65739;51.482;5.702;2024-01-11T11:42:04;24.77;;;11.40;;
76786;SDS011;65739;51.482;5.702;2024-01-11T11:51:10;25.48;;;11.65;;
76786;SDS011;65739;51.482;5.702;2024-01-11T11:54:17;26.60;;;12.95;;
76786;SDS011;65739;51.482;5.702;2024-01-11T17:35:20;18.95;;;7.57;;
76786;SDS011;65739;51.482;5.702;2024-01-11T18:24:37;18.15;;;8.25;;
76786;SDS011;65739;51.482;5.702;2024-01-11T19:28:15;19.00;;;8.95;;
76786;SDS011;65739;51.482;5.702;2024-01-11T19:49:14;26.23;;;11.63;;
